Highland, Ohio
Current Conditions -  °F | °C
As of 5:54 PM on Tuesday 21 Oct 2014 (Local Time) from KILN Reporting Station
Overcast Overcast  
Wind Chill: 43°   Ceiling: 3400
Heat Index: 48°   Visibility: 10mi
Dew Point: 43°   Wind: 10mph
Humidity: 83%   Direction: 340°NNW
Pressure: 30.08"   Gusts: NA
Location:  39.34°N, 83.6°W
Report Text: KILN 212154Z AUTO 34009KT 10SM FEW026 BKN034 OVC044 09/06 A3008 RMK AO2 RAB29E51 SLP197 P0000 T00890061
Loading
Personal Weather Stations






























Interactive Weather Map
Tropical Storm Tracking
New forecast layout! Learn more

10-Day Weather Forecast

Advertisements
Track Severe Weather on mobile